sensor_id;sensor_type;location;lat;lon;timestamp;P1;durP1;ratioP1;P2;durP2;ratioP2
12908;SDS011;6522;49.622;6.126;2023-01-15T00:00:01;0.70;;;0.40;;
12908;SDS011;6522;49.622;6.126;2023-01-15T00:02:48;0.70;;;0.70;;
12908;SDS011;6522;49.622;6.126;2023-01-15T00:05:35;0.80;;;0.80;;
12908;SDS011;6522;49.622;6.126;2023-01-15T00:08:21;0.80;;;0.80;;
12908;SDS011;6522;49.622;6.126;2023-01-15T00:11:08;0.70;;;0.70;;
12908;SDS011;6522;49.622;6.126;2023-01-15T00:13:55;0.80;;;0.80;;
12908;SDS011;6522;49.622;6.126;2023-01-15T00:16:42;0.70;;;0.70;;
12908;SDS011;6522;49.622;6.126;2023-01-15T00:19:28;1.73;;;1.62;;
12908;SDS011;6522;49.622;6.126;2023-01-15T00:22:15;0.70;;;0.30;;
12908;SDS011;6522;49.622;6.126;2023-01-15T00:25:02;0.70;;;0.70;;
12908;SDS011;6522;49.622;6.126;2023-01-15T00:28:07;0.70;;;0.70;;
12908;SDS011;6522;49.622;6.126;2023-01-15T00:30:54;0.70;;;0.70;;
12908;SDS011;6522;49.622;6.126;2023-01-15T00:33:41;0.70;;;0.70;;
12908;SDS011;6522;49.622;6.126;2023-01-15T00:36:28;0.70;;;0.70;;
12908;SDS011;6522;49.622;6.126;2023-01-15T00:39:14;0.70;;;0.70;;
12908;SDS011;6522;49.622;6.126;2023-01-15T00:42:01;0.70;;;0.70;;
12908;SDS011;6522;49.622;6.126;2023-01-15T00:44:48;0.70;;;0.70;;
12908;SDS011;6522;49.622;6.126;2023-01-15T00:47:37;0.70;;;0.70;;
12908;SDS011;6522;49.622;6.126;2023-01-15T00:50:21;0.70;;;0.70;;
12908;SDS011;6522;49.622;6.126;2023-01-15T00:53:07;0.70;;;0.70;;
12908;SDS011;6522;49.622;6.126;2023-01-15T00:55:54;0.80;;;0.70;;
12908;SDS011;6522;49.622;6.126;2023-01-15T00:58:42;0.80;;;0.80;;
12908;SDS011;6522;49.622;6.126;2023-01-15T01:01:28;0.70;;;0.30;;
12908;SDS011;6522;49.622;6.126;2023-01-15T01:04:15;0.80;;;0.80;;
12908;SDS011;6522;49.622;6.126;2023-01-15T01:07:02;0.80;;;0.80;;
12908;SDS011;6522;49.622;6.126;2023-01-15T01:09:48;0.80;;;0.80;;
12908;SDS011;6522;49.622;6.126;2023-01-15T01:12:35;0.80;;;0.80;;
12908;SDS011;6522;49.622;6.126;2023-01-15T01:15:22;0.80;;;0.80;;
12908;SDS011;6522;49.622;6.126;2023-01-15T01:18:08;0.80;;;0.80;;
12908;SDS011;6522;49.622;6.126;2023-01-15T01:20:55;0.70;;;0.40;;
12908;SDS011;6522;49.622;6.126;2023-01-15T01:23:42;0.80;;;0.80;;
12908;SDS011;6522;49.622;6.126;2023-01-15T01:26:29;0.70;;;0.40;;
12908;SDS011;6522;49.622;6.126;2023-01-15T01:29:16;0.95;;;0.95;;
12908;SDS011;6522;49.622;6.126;2023-01-15T01:32:02;0.90;;;0.90;;
12908;SDS011;6522;49.622;6.126;2023-01-15T01:34:49;0.82;;;0.82;;
12908;SDS011;6522;49.622;6.126;2023-01-15T01:37:36;0.80;;;0.80;;
12908;SDS011;6522;49.622;6.126;2023-01-15T01:40:22;0.70;;;0.40;;
12908;SDS011;6522;49.622;6.126;2023-01-15T01:43:22;0.80;;;0.80;;
12908;SDS011;6522;49.622;6.126;2023-01-15T01:46:05;0.80;;;0.75;;
12908;SDS011;6522;49.622;6.126;2023-01-15T01:48:53;0.80;;;0.80;;
12908;SDS011;6522;49.622;6.126;2023-01-15T01:51:40;0.73;;;0.70;;
12908;SDS011;6522;49.622;6.126;2023-01-15T01:54:25;0.80;;;0.80;;
12908;SDS011;6522;49.622;6.126;2023-01-15T01:57:12;0.90;;;0.90;;
12908;SDS011;6522;49.622;6.126;2023-01-15T01:59:59;0.80;;;0.80;;
12908;SDS011;6522;49.622;6.126;2023-01-15T02:02:46;0.90;;;0.90;;
12908;SDS011;6522;49.622;6.126;2023-01-15T02:05:34;0.90;;;0.90;;
12908;SDS011;6522;49.622;6.126;2023-01-15T02:08:20;0.85;;;0.85;;
12908;SDS011;6522;49.622;6.126;2023-01-15T02:11:06;0.70;;;0.40;;
12908;SDS011;6522;49.622;6.126;2023-01-15T02:13:54;0.95;;;0.95;;
12908;SDS011;6522;49.622;6.126;2023-01-15T02:17:26;0.90;;;0.90;;
12908;SDS011;6522;49.622;6.126;2023-01-15T02:22:50;0.80;;;0.80;;
12908;SDS011;6522;49.622;6.126;2023-01-15T02:28:30;0.95;;;0.90;;
12908;SDS011;6522;49.622;6.126;2023-01-15T02:34:09;0.90;;;0.90;;
12908;SDS011;6522;49.622;6.126;2023-01-15T02:36:56;0.90;;;0.90;;
12908;SDS011;6522;49.622;6.126;2023-01-15T02:39:39;0.80;;;0.80;;
12908;SDS011;6522;49.622;6.126;2023-01-15T02:42:26;0.80;;;0.70;;
12908;SDS011;6522;49.622;6.126;2023-01-15T02:45:12;0.80;;;0.80;;
12908;SDS011;6522;49.622;6.126;2023-01-15T02:48:04;0.90;;;0.90;;
12908;SDS011;6522;49.622;6.126;2023-01-15T02:50:50;0.80;;;0.80;;
12908;SDS011;6522;49.622;6.126;2023-01-15T02:53:35;0.80;;;0.80;;
12908;SDS011;6522;49.622;6.126;2023-01-15T02:56:23;0.70;;;0.30;;
12908;SDS011;6522;49.622;6.126;2023-01-15T02:59:20;0.80;;;0.80;;
12908;SDS011;6522;49.622;6.126;2023-01-15T03:02:02;0.82;;;0.82;;
12908;SDS011;6522;49.622;6.126;2023-01-15T03:07:48;0.70;;;0.30;;
12908;SDS011;6522;49.622;6.126;2023-01-15T03:10:38;0.90;;;0.90;;
12908;SDS011;6522;49.622;6.126;2023-01-15T03:13:26;0.88;;;0.88;;
12908;SDS011;6522;49.622;6.126;2023-01-15T03:16:21;0.80;;;0.80;;
12908;SDS011;6522;49.622;6.126;2023-01-15T03:19:32;0.85;;;0.85;;
12908;SDS011;6522;49.622;6.126;2023-01-15T03:22:19;0.80;;;0.80;;
12908;SDS011;6522;49.622;6.126;2023-01-15T03:27:51;0.90;;;0.90;;
12908;SDS011;6522;49.622;6.126;2023-01-15T03:30:37;0.70;;;0.30;;
12908;SDS011;6522;49.622;6.126;2023-01-15T03:33:24;0.77;;;0.70;;
12908;SDS011;6522;49.622;6.126;2023-01-15T03:36:10;0.80;;;0.80;;
12908;SDS011;6522;49.622;6.126;2023-01-15T03:38:57;0.88;;;0.88;;
12908;SDS011;6522;49.622;6.126;2023-01-15T03:41:46;0.80;;;0.80;;
12908;SDS011;6522;49.622;6.126;2023-01-15T03:44:39;0.90;;;0.90;;
12908;SDS011;6522;49.622;6.126;2023-01-15T03:50:17;0.90;;;0.90;;
12908;SDS011;6522;49.622;6.126;2023-01-15T03:53:04;0.80;;;0.80;;
12908;SDS011;6522;49.622;6.126;2023-01-15T03:55:53;0.90;;;0.90;;
12908;SDS011;6522;49.622;6.126;2023-01-15T03:58:46;0.90;;;0.90;;
12908;SDS011;6522;49.622;6.126;2023-01-15T04:01:35;0.88;;;0.88;;
12908;SDS011;6522;49.622;6.126;2023-01-15T04:04:18;0.82;;;0.82;;
12908;SDS011;6522;49.622;6.126;2023-01-15T04:07:04;0.80;;;0.77;;
12908;SDS011;6522;49.622;6.126;2023-01-15T04:09:51;0.88;;;0.88;;
12908;SDS011;6522;49.622;6.126;2023-01-15T04:12:38;0.70;;;0.40;;
12908;SDS011;6522;49.622;6.126;2023-01-15T04:15:25;0.90;;;0.90;;
12908;SDS011;6522;49.622;6.126;2023-01-15T04:18:11;0.88;;;0.88;;
12908;SDS011;6522;49.622;6.126;2023-01-15T04:20:58;0.80;;;0.80;;
12908;SDS011;6522;49.622;6.126;2023-01-15T04:23:44;0.70;;;0.70;;
12908;SDS011;6522;49.622;6.126;2023-01-15T04:26:31;0.80;;;0.80;;
12908;SDS011;6522;49.622;6.126;2023-01-15T04:29:18;0.80;;;0.80;;
12908;SDS011;6522;49.622;6.126;2023-01-15T04:32:04;0.80;;;0.77;;
12908;SDS011;6522;49.622;6.126;2023-01-15T04:34:51;0.90;;;0.90;;
12908;SDS011;6522;49.622;6.126;2023-01-15T04:37:38;0.80;;;0.80;;
12908;SDS011;6522;49.622;6.126;2023-01-15T04:40:25;0.80;;;0.80;;
12908;SDS011;6522;49.622;6.126;2023-01-15T04:43:30;0.80;;;0.80;;
12908;SDS011;6522;49.622;6.126;2023-01-15T04:46:37;0.80;;;0.80;;
12908;SDS011;6522;49.622;6.126;2023-01-15T04:49:22;0.90;;;0.90;;
12908;SDS011;6522;49.622;6.126;2023-01-15T04:52:09;0.70;;;0.30;;
12908;SDS011;6522;49.622;6.126;2023-01-15T04:54:56;0.70;;;0.47;;
12908;SDS011;6522;49.622;6.126;2023-01-15T04:57:43;0.70;;;0.70;;
12908;SDS011;6522;49.622;6.126;2023-01-15T05:00:30;0.70;;;0.70;;
12908;SDS011;6522;49.622;6.126;2023-01-15T05:03:17;0.80;;;0.80;;
12908;SDS011;6522;49.622;6.126;2023-01-15T05:06:03;0.80;;;0.80;;
12908;SDS011;6522;49.622;6.126;2023-01-15T05:08:51;0.80;;;0.80;;
12908;SDS011;6522;49.622;6.126;2023-01-15T05:11:38;0.80;;;0.80;;
12908;SDS011;6522;49.622;6.126;2023-01-15T05:14:24;0.80;;;0.80;;
12908;SDS011;6522;49.622;6.126;2023-01-15T05:17:10;0.80;;;0.80;;
12908;SDS011;6522;49.622;6.126;2023-01-15T05:19:57;0.70;;;0.30;;
12908;SDS011;6522;49.622;6.126;2023-01-15T05:22:44;0.80;;;0.80;;
12908;SDS011;6522;49.622;6.126;2023-01-15T05:25:31;0.90;;;0.90;;
12908;SDS011;6522;49.622;6.126;2023-01-15T05:28:17;0.70;;;0.70;;
12908;SDS011;6522;49.622;6.126;2023-01-15T05:31:05;0.80;;;0.80;;
12908;SDS011;6522;49.622;6.126;2023-01-15T05:33:51;0.77;;;0.77;;
12908;SDS011;6522;49.622;6.126;2023-01-15T05:36:37;0.80;;;0.80;;
12908;SDS011;6522;49.622;6.126;2023-01-15T05:39:24;0.70;;;0.70;;
12908;SDS011;6522;49.622;6.126;2023-01-15T05:42:11;0.80;;;0.80;;
12908;SDS011;6522;49.622;6.126;2023-01-15T05:44:57;0.80;;;0.80;;
12908;SDS011;6522;49.622;6.126;2023-01-15T05:47:44;0.73;;;0.73;;
12908;SDS011;6522;49.622;6.126;2023-01-15T05:50:31;0.70;;;0.30;;
12908;SDS011;6522;49.622;6.126;2023-01-15T05:53:18;2.17;;;2.08;;
12908;SDS011;6522;49.622;6.126;2023-01-15T05:56:05;0.98;;;0.98;;
12908;SDS011;6522;49.622;6.126;2023-01-15T05:58:51;0.93;;;0.93;;
12908;SDS011;6522;49.622;6.126;2023-01-15T06:01:37;0.90;;;0.90;;
12908;SDS011;6522;49.622;6.126;2023-01-15T06:04:24;0.90;;;0.90;;
12908;SDS011;6522;49.622;6.126;2023-01-15T06:07:11;0.90;;;0.90;;
12908;SDS011;6522;49.622;6.126;2023-01-15T06:09:58;0.77;;;0.77;;
12908;SDS011;6522;49.622;6.126;2023-01-15T06:12:45;0.80;;;0.80;;
12908;SDS011;6522;49.622;6.126;2023-01-15T06:15:32;0.80;;;0.80;;
12908;SDS011;6522;49.622;6.126;2023-01-15T06:18:19;0.90;;;0.90;;
12908;SDS011;6522;49.622;6.126;2023-01-15T06:21:06;1.00;;;1.00;;
12908;SDS011;6522;49.622;6.126;2023-01-15T06:23:53;0.70;;;0.30;;
12908;SDS011;6522;49.622;6.126;2023-01-15T06:26:39;0.70;;;0.40;;
12908;SDS011;6522;49.622;6.126;2023-01-15T06:29:25;0.93;;;0.93;;
12908;SDS011;6522;49.622;6.126;2023-01-15T06:32:12;0.90;;;0.90;;
12908;SDS011;6522;49.622;6.126;2023-01-15T06:34:59;0.82;;;0.82;;
12908;SDS011;6522;49.622;6.126;2023-01-15T06:37:47;0.77;;;0.77;;
12908;SDS011;6522;49.622;6.126;2023-01-15T06:40:32;0.80;;;0.80;;
12908;SDS011;6522;49.622;6.126;2023-01-15T06:43:19;0.80;;;0.80;;
12908;SDS011;6522;49.622;6.126;2023-01-15T06:46:24;1.00;;;1.00;;
12908;SDS011;6522;49.622;6.126;2023-01-15T06:49:29;0.90;;;0.90;;
12908;SDS011;6522;49.622;6.126;2023-01-15T06:52:15;0.98;;;0.98;;
12908;SDS011;6522;49.622;6.126;2023-01-15T06:55:02;1.00;;;1.00;;
12908;SDS011;6522;49.622;6.126;2023-01-15T06:57:49;0.80;;;0.80;;
12908;SDS011;6522;49.622;6.126;2023-01-15T07:00:36;0.93;;;0.93;;
12908;SDS011;6522;49.622;6.126;2023-01-15T07:03:23;0.90;;;0.90;;
12908;SDS011;6522;49.622;6.126;2023-01-15T07:06:10;0.90;;;0.90;;
12908;SDS011;6522;49.622;6.126;2023-01-15T07:08:57;0.82;;;0.82;;
12908;SDS011;6522;49.622;6.126;2023-01-15T07:11:44;0.80;;;0.80;;
12908;SDS011;6522;49.622;6.126;2023-01-15T07:14:36;0.90;;;0.90;;
12908;SDS011;6522;49.622;6.126;2023-01-15T07:17:23;0.90;;;0.90;;
12908;SDS011;6522;49.622;6.126;2023-01-15T07:20:10;0.90;;;0.90;;
12908;SDS011;6522;49.622;6.126;2023-01-15T07:22:57;0.80;;;0.80;;
12908;SDS011;6522;49.622;6.126;2023-01-15T07:25:44;1.00;;;1.00;;
12908;SDS011;6522;49.622;6.126;2023-01-15T07:28:31;0.70;;;0.40;;
12908;SDS011;6522;49.622;6.126;2023-01-15T07:31:17;0.90;;;0.90;;
12908;SDS011;6522;49.622;6.126;2023-01-15T07:34:05;1.00;;;1.00;;
12908;SDS011;6522;49.622;6.126;2023-01-15T07:36:51;0.95;;;0.95;;
12908;SDS011;6522;49.622;6.126;2023-01-15T07:39:38;1.00;;;1.00;;
12908;SDS011;6522;49.622;6.126;2023-01-15T07:42:24;0.98;;;0.98;;
12908;SDS011;6522;49.622;6.126;2023-01-15T07:45:30;0.90;;;0.90;;
12908;SDS011;6522;49.622;6.126;2023-01-15T07:48:35;1.20;;;1.20;;
12908;SDS011;6522;49.622;6.126;2023-01-15T07:51:40;0.70;;;0.70;;
12908;SDS011;6522;49.622;6.126;2023-01-15T07:54:26;1.10;;;1.10;;
12908;SDS011;6522;49.622;6.126;2023-01-15T07:57:14;1.50;;;1.40;;
12908;SDS011;6522;49.622;6.126;2023-01-15T08:00:00;1.45;;;1.35;;
12908;SDS011;6522;49.622;6.126;2023-01-15T08:02:47;1.10;;;1.10;;
12908;SDS011;6522;49.622;6.126;2023-01-15T08:05:34;1.00;;;1.00;;
12908;SDS011;6522;49.622;6.126;2023-01-15T08:08:20;1.10;;;1.10;;
12908;SDS011;6522;49.622;6.126;2023-01-15T08:11:07;1.25;;;1.25;;
12908;SDS011;6522;49.622;6.126;2023-01-15T08:14:12;1.23;;;1.23;;
12908;SDS011;6522;49.622;6.126;2023-01-15T08:17:18;1.30;;;1.25;;
12908;SDS011;6522;49.622;6.126;2023-01-15T08:20:06;1.08;;;1.08;;
12908;SDS011;6522;49.622;6.126;2023-01-15T08:22:52;1.27;;;1.27;;
12908;SDS011;6522;49.622;6.126;2023-01-15T08:25:39;1.40;;;1.40;;
12908;SDS011;6522;49.622;6.126;2023-01-15T08:28:25;1.15;;;1.15;;
12908;SDS011;6522;49.622;6.126;2023-01-15T08:31:12;1.40;;;1.40;;
12908;SDS011;6522;49.622;6.126;2023-01-15T08:33:58;0.93;;;0.93;;
12908;SDS011;6522;49.622;6.126;2023-01-15T08:36:45;1.12;;;1.12;;
12908;SDS011;6522;49.622;6.126;2023-01-15T08:39:32;1.10;;;1.10;;
12908;SDS011;6522;49.622;6.126;2023-01-15T08:42:19;1.20;;;1.20;;
12908;SDS011;6522;49.622;6.126;2023-01-15T08:45:06;1.27;;;1.27;;
12908;SDS011;6522;49.622;6.126;2023-01-15T08:47:55;1.20;;;1.20;;
12908;SDS011;6522;49.622;6.126;2023-01-15T08:50:42;1.10;;;1.10;;
12908;SDS011;6522;49.622;6.126;2023-01-15T08:53:28;1.00;;;1.00;;
12908;SDS011;6522;49.622;6.126;2023-01-15T08:56:16;0.90;;;0.90;;
12908;SDS011;6522;49.622;6.126;2023-01-15T08:59:05;1.00;;;1.00;;
12908;SDS011;6522;49.622;6.126;2023-01-15T09:01:52;0.95;;;0.95;;
12908;SDS011;6522;49.622;6.126;2023-01-15T09:04:39;1.10;;;1.10;;
12908;SDS011;6522;49.622;6.126;2023-01-15T09:07:25;1.17;;;1.17;;
12908;SDS011;6522;49.622;6.126;2023-01-15T09:10:12;0.80;;;0.80;;
12908;SDS011;6522;49.622;6.126;2023-01-15T09:13:01;0.88;;;0.88;;
12908;SDS011;6522;49.622;6.126;2023-01-15T09:15:48;0.80;;;0.80;;
12908;SDS011;6522;49.622;6.126;2023-01-15T09:18:36;0.80;;;0.80;;
12908;SDS011;6522;49.622;6.126;2023-01-15T09:21:21;1.20;;;1.20;;
12908;SDS011;6522;49.622;6.126;2023-01-15T09:24:09;0.70;;;0.40;;
12908;SDS011;6522;49.622;6.126;2023-01-15T09:26:55;0.95;;;0.95;;
12908;SDS011;6522;49.622;6.126;2023-01-15T09:29:42;0.98;;;0.98;;
12908;SDS011;6522;49.622;6.126;2023-01-15T09:32:29;1.12;;;1.12;;
12908;SDS011;6522;49.622;6.126;2023-01-15T09:35:15;1.05;;;1.05;;
12908;SDS011;6522;49.622;6.126;2023-01-15T09:38:02;1.05;;;1.05;;
12908;SDS011;6522;49.622;6.126;2023-01-15T09:40:52;1.00;;;1.00;;
12908;SDS011;6522;49.622;6.126;2023-01-15T09:46:39;1.02;;;1.02;;
12908;SDS011;6522;49.622;6.126;2023-01-15T09:49:28;1.10;;;1.10;;
12908;SDS011;6522;49.622;6.126;2023-01-15T09:52:13;0.85;;;0.85;;
12908;SDS011;6522;49.622;6.126;2023-01-15T09:55:01;0.70;;;0.40;;
12908;SDS011;6522;49.622;6.126;2023-01-15T09:57:45;0.90;;;0.90;;
12908;SDS011;6522;49.622;6.126;2023-01-15T10:00:39;0.95;;;0.95;;
12908;SDS011;6522;49.622;6.126;2023-01-15T10:06:26;1.00;;;1.00;;
12908;SDS011;6522;49.622;6.126;2023-01-15T10:09:29;1.15;;;1.15;;
12908;SDS011;6522;49.622;6.126;2023-01-15T10:12:18;1.10;;;1.10;;
12908;SDS011;6522;49.622;6.126;2023-01-15T10:15:26;0.70;;;0.50;;
12908;SDS011;6522;49.622;6.126;2023-01-15T10:18:14;1.30;;;1.20;;
12908;SDS011;6522;49.622;6.126;2023-01-15T10:21:09;0.70;;;0.50;;
12908;SDS011;6522;49.622;6.126;2023-01-15T10:24:00;1.50;;;1.40;;
12908;SDS011;6522;49.622;6.126;2023-01-15T10:26:52;1.50;;;1.40;;
12908;SDS011;6522;49.622;6.126;2023-01-15T10:29:41;3.17;;;2.25;;
12908;SDS011;6522;49.622;6.126;2023-01-15T10:32:46;1.80;;;1.70;;
12908;SDS011;6522;49.622;6.126;2023-01-15T10:38:30;1.40;;;1.30;;
12908;SDS011;6522;49.622;6.126;2023-01-15T10:42:22;2.90;;;2.80;;
12908;SDS011;6522;49.622;6.126;2023-01-15T10:44:14;3.12;;;3.03;;
12908;SDS011;6522;49.622;6.126;2023-01-15T10:46:58;2.72;;;2.62;;
12908;SDS011;6522;49.622;6.126;2023-01-15T10:49:45;4.30;;;4.10;;
12908;SDS011;6522;49.622;6.126;2023-01-15T10:52:32;4.85;;;4.65;;
12908;SDS011;6522;49.622;6.126;2023-01-15T10:55:20;4.20;;;4.00;;
12908;SDS011;6522;49.622;6.126;2023-01-15T10:58:10;4.20;;;4.00;;
12908;SDS011;6522;49.622;6.126;2023-01-15T11:00:59;4.80;;;4.60;;
12908;SDS011;6522;49.622;6.126;2023-01-15T11:03:44;6.40;;;6.20;;
12908;SDS011;6522;49.622;6.126;2023-01-15T11:06:31;6.30;;;6.10;;
12908;SDS011;6522;49.622;6.126;2023-01-15T11:09:19;8.93;;;8.43;;
12908;SDS011;6522;49.622;6.126;2023-01-15T11:12:11;9.25;;;8.32;;
12908;SDS011;6522;49.622;6.126;2023-01-15T11:14:51;8.00;;;7.50;;
12908;SDS011;6522;49.622;6.126;2023-01-15T11:17:56;8.65;;;8.25;;
12908;SDS011;6522;49.622;6.126;2023-01-15T11:21:01;7.07;;;6.57;;
12908;SDS011;6522;49.622;6.126;2023-01-15T11:23:48;7.53;;;6.85;;
12908;SDS011;6522;49.622;6.126;2023-01-15T11:26:34;11.00;;;7.15;;
12908;SDS011;6522;49.622;6.126;2023-01-15T11:29:28;6.85;;;6.45;;
12908;SDS011;6522;49.622;6.126;2023-01-15T11:32:18;6.45;;;5.57;;
12908;SDS011;6522;49.622;6.126;2023-01-15T11:38:03;9.25;;;8.40;;
12908;SDS011;6522;49.622;6.126;2023-01-15T11:40:53;8.30;;;7.80;;
12908;SDS011;6522;49.622;6.126;2023-01-15T11:43:40;7.45;;;7.05;;
12908;SDS011;6522;49.622;6.126;2023-01-15T11:46:44;8.25;;;7.57;;
12908;SDS011;6522;49.622;6.126;2023-01-15T11:49:53;7.18;;;6.68;;
12908;SDS011;6522;49.622;6.126;2023-01-15T11:52:55;7.10;;;6.60;;
12908;SDS011;6522;49.622;6.126;2023-01-15T11:55:49;6.15;;;5.85;;
12908;SDS011;6522;49.622;6.126;2023-01-15T11:58:33;7.68;;;6.62;;
12908;SDS011;6522;49.622;6.126;2023-01-15T12:01:20;6.55;;;5.95;;
12908;SDS011;6522;49.622;6.126;2023-01-15T12:04:06;6.85;;;6.18;;
12908;SDS011;6522;49.622;6.126;2023-01-15T12:06:52;6.35;;;5.95;;
12908;SDS011;6522;49.622;6.126;2023-01-15T12:12:29;7.07;;;6.60;;
12908;SDS011;6522;49.622;6.126;2023-01-15T12:15:24;8.70;;;8.20;;
12908;SDS011;6522;49.622;6.126;2023-01-15T12:21:10;9.02;;;8.43;;
12908;SDS011;6522;49.622;6.126;2023-01-15T12:24:09;13.07;;;9.68;;
12908;SDS011;6522;49.622;6.126;2023-01-15T12:29:45;11.12;;;10.23;;
12908;SDS011;6522;49.622;6.126;2023-01-15T12:32:33;10.02;;;9.45;;
12908;SDS011;6522;49.622;6.126;2023-01-15T12:35:29;9.43;;;8.82;;
12908;SDS011;6522;49.622;6.126;2023-01-15T12:39:03;9.77;;;9.18;;
12908;SDS011;6522;49.622;6.126;2023-01-15T12:41:12;9.25;;;8.65;;
12908;SDS011;6522;49.622;6.126;2023-01-15T12:43:51;9.05;;;8.20;;
12908;SDS011;6522;49.622;6.126;2023-01-15T12:46:54;8.93;;;8.10;;
12908;SDS011;6522;49.622;6.126;2023-01-15T12:49:52;8.10;;;7.15;;
12908;SDS011;6522;49.622;6.126;2023-01-15T12:52:30;8.30;;;7.80;;
12908;SDS011;6522;49.622;6.126;2023-01-15T12:55:16;5.90;;;5.43;;
12908;SDS011;6522;49.622;6.126;2023-01-15T12:58:01;9.38;;;8.70;;
12908;SDS011;6522;49.622;6.126;2023-01-15T13:00:48;8.80;;;8.20;;
12908;SDS011;6522;49.622;6.126;2023-01-15T13:03:48;5.60;;;5.10;;
12908;SDS011;6522;49.622;6.126;2023-01-15T13:06:33;9.15;;;8.45;;
12908;SDS011;6522;49.622;6.126;2023-01-15T13:10:04;10.70;;;9.82;;
12908;SDS011;6522;49.622;6.126;2023-01-15T13:12:13;8.73;;;7.85;;
12908;SDS011;6522;49.622;6.126;2023-01-15T13:14:56;7.80;;;7.30;;
12908;SDS011;6522;49.622;6.126;2023-01-15T13:32:18;4.80;;;4.40;;
12908;SDS011;6522;49.622;6.126;2023-01-15T13:37:51;4.68;;;4.25;;
12908;SDS011;6522;49.622;6.126;2023-01-15T13:40:38;4.93;;;3.10;;
12908;SDS011;6522;49.622;6.126;2023-01-15T13:43:33;3.85;;;3.55;;
12908;SDS011;6522;49.622;6.126;2023-01-15T13:46:20;10.68;;;3.55;;
12908;SDS011;6522;49.622;6.126;2023-01-15T13:49:13;6.57;;;2.97;;
12908;SDS011;6522;49.622;6.126;2023-01-15T13:51:53;4.75;;;2.75;;
12908;SDS011;6522;49.622;6.126;2023-01-15T13:54:40;2.70;;;2.35;;
12908;SDS011;6522;49.622;6.126;2023-01-15T13:57:34;3.62;;;1.40;;
12908;SDS011;6522;49.622;6.126;2023-01-15T14:00:29;3.22;;;2.00;;
12908;SDS011;6522;49.622;6.126;2023-01-15T14:06:08;2.40;;;2.20;;
12908;SDS011;6522;49.622;6.126;2023-01-15T14:08:54;6.57;;;2.33;;
12908;SDS011;6522;49.622;6.126;2023-01-15T14:14:32;9.07;;;3.35;;
12908;SDS011;6522;49.622;6.126;2023-01-15T14:17:19;2.75;;;2.40;;
12908;SDS011;6522;49.622;6.126;2023-01-15T14:25:56;7.03;;;2.70;;
12908;SDS011;6522;49.622;6.126;2023-01-15T14:31:35;3.10;;;2.90;;
12908;SDS011;6522;49.622;6.126;2023-01-15T14:34:21;8.68;;;3.47;;
12908;SDS011;6522;49.622;6.126;2023-01-15T14:37:06;9.40;;;3.80;;
12908;SDS011;6522;49.622;6.126;2023-01-15T14:39:53;3.05;;;2.78;;
12908;SDS011;6522;49.622;6.126;2023-01-15T14:42:39;4.70;;;3.20;;
12908;SDS011;6522;49.622;6.126;2023-01-15T14:45:45;4.37;;;3.37;;
12908;SDS011;6522;49.622;6.126;2023-01-15T14:48:38;3.40;;;3.10;;
12908;SDS011;6522;49.622;6.126;2023-01-15T14:51:29;4.82;;;3.35;;
12908;SDS011;6522;49.622;6.126;2023-01-15T14:54:14;8.13;;;3.25;;
12908;SDS011;6522;49.622;6.126;2023-01-15T14:57:01;5.87;;;3.37;;
12908;SDS011;6522;49.622;6.126;2023-01-15T14:59:48;8.63;;;3.65;;
12908;SDS011;6522;49.622;6.126;2023-01-15T15:02:38;7.25;;;3.08;;
12908;SDS011;6522;49.622;6.126;2023-01-15T15:05:21;5.72;;;3.25;;
12908;SDS011;6522;49.622;6.126;2023-01-15T15:08:09;3.95;;;2.95;;
12908;SDS011;6522;49.622;6.126;2023-01-15T15:10:54;9.18;;;2.92;;
12908;SDS011;6522;49.622;6.126;2023-01-15T15:13:41;4.20;;;3.10;;
12908;SDS011;6522;49.622;6.126;2023-01-15T15:16:28;5.00;;;2.97;;
12908;SDS011;6522;49.622;6.126;2023-01-15T15:22:02;5.70;;;4.07;;
12908;SDS011;6522;49.622;6.126;2023-01-15T15:24:49;6.57;;;2.70;;
12908;SDS011;6522;49.622;6.126;2023-01-15T15:27:35;3.00;;;2.80;;
12908;SDS011;6522;49.622;6.126;2023-01-15T15:30:22;4.95;;;2.87;;
12908;SDS011;6522;49.622;6.126;2023-01-15T15:33:11;6.22;;;3.67;;
12908;SDS011;6522;49.622;6.126;2023-01-15T15:35:57;3.78;;;3.00;;
12908;SDS011;6522;49.622;6.126;2023-01-15T15:38:53;3.65;;;3.10;;
12908;SDS011;6522;49.622;6.126;2023-01-15T15:41:30;4.25;;;2.72;;
12908;SDS011;6522;49.622;6.126;2023-01-15T15:44:38;4.05;;;3.47;;
12908;SDS011;6522;49.622;6.126;2023-01-15T15:47:40;9.20;;;3.10;;
12908;SDS011;6522;49.622;6.126;2023-01-15T15:50:46;3.35;;;1.73;;
12908;SDS011;6522;49.622;6.126;2023-01-15T15:53:32;3.95;;;2.67;;
12908;SDS011;6522;49.622;6.126;2023-01-15T15:56:18;3.00;;;2.70;;
12908;SDS011;6522;49.622;6.126;2023-01-15T15:59:06;4.75;;;2.10;;
12908;SDS011;6522;49.622;6.126;2023-01-15T16:01:53;6.75;;;3.35;;
12908;SDS011;6522;49.622;6.126;2023-01-15T16:04:43;11.38;;;3.12;;
12908;SDS011;6522;49.622;6.126;2023-01-15T16:07:30;4.68;;;2.55;;
12908;SDS011;6522;49.622;6.126;2023-01-15T16:10:17;8.80;;;2.80;;
12908;SDS011;6522;49.622;6.126;2023-01-15T16:13:03;3.17;;;2.87;;
12908;SDS011;6522;49.622;6.126;2023-01-15T16:15:49;8.15;;;3.03;;
12908;SDS011;6522;49.622;6.126;2023-01-15T16:18:38;5.37;;;1.75;;
12908;SDS011;6522;49.622;6.126;2023-01-15T16:21:35;6.43;;;3.58;;
12908;SDS011;6522;49.622;6.126;2023-01-15T16:24:24;5.00;;;2.78;;
12908;SDS011;6522;49.622;6.126;2023-01-15T16:27:12;3.97;;;2.75;;
12908;SDS011;6522;49.622;6.126;2023-01-15T16:29:55;3.05;;;2.75;;
12908;SDS011;6522;49.622;6.126;2023-01-15T16:32:42;6.25;;;3.85;;
12908;SDS011;6522;49.622;6.126;2023-01-15T16:35:29;5.10;;;3.62;;
12908;SDS011;6522;49.622;6.126;2023-01-15T16:38:17;4.20;;;2.60;;
12908;SDS011;6522;49.622;6.126;2023-01-15T16:41:02;5.40;;;2.40;;
12908;SDS011;6522;49.622;6.126;2023-01-15T16:43:57;4.18;;;2.20;;
12908;SDS011;6522;49.622;6.126;2023-01-15T16:46:51;6.28;;;2.83;;
12908;SDS011;6522;49.622;6.126;2023-01-15T16:49:35;4.70;;;3.97;;
12908;SDS011;6522;49.622;6.126;2023-01-15T16:58:21;4.62;;;3.53;;
12908;SDS011;6522;49.622;6.126;2023-01-15T17:04:03;8.57;;;3.08;;
12908;SDS011;6522;49.622;6.126;2023-01-15T17:06:53;7.00;;;3.30;;
12908;SDS011;6522;49.622;6.126;2023-01-15T17:09:49;5.15;;;3.25;;
12908;SDS011;6522;49.622;6.126;2023-01-15T17:12:38;10.15;;;3.20;;
12908;SDS011;6522;49.622;6.126;2023-01-15T17:18:18;8.15;;;3.40;;
12908;SDS011;6522;49.622;6.126;2023-01-15T17:21:04;6.05;;;3.03;;
12908;SDS011;6522;49.622;6.126;2023-01-15T17:23:50;7.68;;;3.70;;
12908;SDS011;6522;49.622;6.126;2023-01-15T17:26:37;5.65;;;3.40;;
12908;SDS011;6522;49.622;6.126;2023-01-15T17:29:24;8.57;;;3.15;;
12908;SDS011;6522;49.622;6.126;2023-01-15T17:32:14;2.53;;;2.33;;
12908;SDS011;6522;49.622;6.126;2023-01-15T17:35:00;6.28;;;2.67;;
12908;SDS011;6522;49.622;6.126;2023-01-15T17:37:47;2.72;;;2.53;;
12908;SDS011;6522;49.622;6.126;2023-01-15T17:40:34;3.40;;;2.53;;
12908;SDS011;6522;49.622;6.126;2023-01-15T17:43:21;5.12;;;2.22;;
12908;SDS011;6522;49.622;6.126;2023-01-15T17:46:07;2.53;;;2.10;;
12908;SDS011;6522;49.622;6.126;2023-01-15T17:48:54;4.57;;;2.70;;
12908;SDS011;6522;49.622;6.126;2023-01-15T17:51:41;2.83;;;2.10;;
12908;SDS011;6522;49.622;6.126;2023-01-15T17:54:27;6.82;;;2.60;;
12908;SDS011;6522;49.622;6.126;2023-01-15T17:57:33;4.90;;;2.35;;
12908;SDS011;6522;49.622;6.126;2023-01-15T18:00:38;2.95;;;2.50;;
12908;SDS011;6522;49.622;6.126;2023-01-15T18:03:47;7.25;;;1.90;;
12908;SDS011;6522;49.622;6.126;2023-01-15T18:06:52;3.20;;;2.40;;
12908;SDS011;6522;49.622;6.126;2023-01-15T18:09:39;5.90;;;2.72;;
12908;SDS011;6522;49.622;6.126;2023-01-15T18:12:25;8.02;;;2.72;;
12908;SDS011;6522;49.622;6.126;2023-01-15T18:15:12;5.57;;;2.47;;
12908;SDS011;6522;49.622;6.126;2023-01-15T18:17:58;2.78;;;2.15;;
12908;SDS011;6522;49.622;6.126;2023-01-15T18:20:45;5.35;;;2.78;;
12908;SDS011;6522;49.622;6.126;2023-01-15T18:23:32;5.30;;;3.00;;
12908;SDS011;6522;49.622;6.126;2023-01-15T18:26:18;7.18;;;2.80;;
12908;SDS011;6522;49.622;6.126;2023-01-15T18:29:06;3.35;;;2.60;;
12908;SDS011;6522;49.622;6.126;2023-01-15T18:31:52;7.60;;;3.20;;
12908;SDS011;6522;49.622;6.126;2023-01-15T18:34:39;5.00;;;2.28;;